createdAt,value
2024-04-07T00:00:27.059Z,98997.52
2024-04-07T00:05:30.995Z,99002.29
2024-04-07T00:10:37.511Z,99000.85
2024-04-07T00:15:40.400Z,99002.73
2024-04-07T00:20:43.479Z,98999.05
2024-04-07T00:25:46.550Z,99005.97
2024-04-07T00:30:50.674Z,99002.83
2024-04-07T00:35:57.295Z,99013.27
2024-04-07T00:41:03.411Z,99021.73
2024-04-07T00:46:06.232Z,99023.73
2024-04-07T00:51:09.796Z,99023.75
2024-04-07T00:56:13.162Z,99025.23
2024-04-07T01:01:15.970Z,99025.30
2024-04-07T01:06:19.156Z,99023.75
2024-04-07T01:11:27.711Z,99019.95
2024-04-07T01:16:30.544Z,99027.83
2024-04-07T01:21:33.569Z,99036.45
2024-04-07T01:26:36.363Z,99041.92
2024-04-07T01:31:39.787Z,99039.57
2024-04-07T01:36:43.979Z,99033.60
2024-04-07T01:41:46.906Z,99035.55
2024-04-07T01:46:49.895Z,99025.95
2024-04-07T01:51:52.785Z,99023.02
2024-04-07T01:56:55.572Z,99027.34
2024-04-07T02:01:58.488Z,99027.58
2024-04-07T02:07:01.340Z,99029.38
2024-04-07T02:12:05.539Z,99024.41
2024-04-07T02:17:08.497Z,99016.87
2024-04-07T02:22:11.335Z,99020.98
2024-04-07T02:27:14.174Z,99011.98
2024-04-07T02:32:18.289Z,99006.23
2024-04-07T02:37:21.217Z,99000.20
2024-04-07T02:42:24.052Z,98995.56
2024-04-07T02:47:50.597Z,99002.80
2024-04-07T02:52:53.487Z,99008.83
2024-04-07T02:57:56.571Z,99013.42
2024-04-07T03:02:59.394Z,99016.01
2024-04-07T03:08:05.506Z,99016.42
2024-04-07T03:13:08.366Z,99021.30
2024-04-07T03:18:11.455Z,99024.00
2024-04-07T03:23:14.933Z,99018.48
2024-04-07T03:28:17.835Z,99020.95
2024-04-07T03:33:21.117Z,99013.64
2024-04-07T03:38:23.974Z,99015.41
2024-04-07T03:43:26.782Z,99005.54
2024-04-07T03:48:29.596Z,99012.18
2024-04-07T03:53:32.535Z,99019.92
2024-04-07T03:58:35.385Z,99018.21
2024-04-07T04:03:38.194Z,99015.23
2024-04-07T04:08:41.102Z,99013.63
2024-04-07T04:13:47.058Z,99008.09
2024-04-07T04:18:53.901Z,99010.03
2024-04-07T04:23:56.899Z,99017.14
2024-04-07T04:28:59.758Z,99015.29
2024-04-07T04:34:03.210Z,99010.54
2024-04-07T04:39:07.132Z,99017.39
2024-04-07T04:44:10.107Z,99014.86
2024-04-07T04:49:13.073Z,99013.45
2024-04-07T04:54:16.236Z,99015.94
2024-04-07T04:59:19.113Z,99019.41
2024-04-07T05:04:21.970Z,99026.13
2024-04-07T05:09:24.850Z,99034.39
2024-04-07T05:14:27.658Z,99037.59
2024-04-07T05:19:30.655Z,99043.54
2024-04-07T05:24:33.521Z,99047.33
2024-04-07T05:29:36.366Z,99048.75
2024-04-07T05:34:40.234Z,99040.64
2024-04-07T05:39:48.935Z,99039.15
2024-04-07T05:44:51.787Z,99035.90
2024-04-07T05:49:54.938Z,99031.68
2024-04-07T05:54:57.882Z,99030.45
2024-04-07T06:00:00.959Z,99034.45
2024-04-07T06:05:04.326Z,99035.12
2024-04-07T06:10:07.958Z,99040.48
2024-04-07T06:15:11.020Z,99037.35
2024-04-07T06:20:13.928Z,99039.03
2024-04-07T06:25:16.931Z,99045.11
2024-04-07T06:30:19.991Z,99057.77
2024-04-07T06:35:23.328Z,99062.29
2024-04-07T06:40:26.194Z,99061.23
2024-04-07T06:45:29.129Z,99065.89
2024-04-07T06:50:33.993Z,99067.17
2024-04-07T06:55:37.725Z,99069.13
2024-04-07T07:00:41.644Z,99072.23
2024-04-07T07:05:44.881Z,99073.16
2024-04-07T07:11:00.084Z,99062.66
2024-04-07T07:16:03.163Z,99059.10
2024-04-07T07:21:07.462Z,99056.20
2024-04-07T07:26:10.378Z,99063.29
2024-04-07T07:31:13.370Z,99064.42
2024-04-07T07:36:16.366Z,99070.83
2024-04-07T07:41:19.163Z,99069.26
2024-04-07T07:46:21.989Z,99069.66
2024-04-07T07:51:25.584Z,99067.30
2024-04-07T07:56:28.380Z,99067.81
2024-04-07T08:01:33.017Z,99066.20
2024-04-07T08:06:35.974Z,99067.26
2024-04-07T08:11:38.931Z,99069.48
2024-04-07T08:16:41.756Z,99067.56
2024-04-07T08:21:44.563Z,99069.30
2024-04-07T08:26:47.380Z,99072.32
2024-04-07T08:31:50.192Z,99069.34
2024-04-07T08:36:53.434Z,99069.02
2024-04-07T08:41:58.627Z,99065.28
2024-04-07T08:47:03.502Z,99058.16
2024-04-07T08:52:06.325Z,99054.17
2024-04-07T08:57:12.006Z,99056.35
2024-04-07T09:02:19.375Z,99057.05
2024-04-07T09:07:23.899Z,99049.17
2024-04-07T09:12:26.999Z,99051.30
2024-04-07T09:17:31.384Z,99042.54
2024-04-07T09:22:35.467Z,99034.87
2024-04-07T09:27:38.683Z,99029.82
2024-04-07T09:32:42.847Z,99029.55
2024-04-07T09:37:47.154Z,99029.58
2024-04-07T09:42:54.924Z,99023.36
2024-04-07T09:48:02.900Z,99025.63
2024-04-07T09:53:20.926Z,99021.45
2024-04-07T09:58:24.349Z,99019.83
2024-04-07T10:03:28.194Z,99021.81
2024-04-07T10:08:32.197Z,99022.20
2024-04-07T10:13:35.062Z,99014.41
2024-04-07T10:18:41.283Z,99006.04
2024-04-07T10:23:48.385Z,99001.52
2024-04-07T10:28:54.529Z,99005.89
2024-04-07T10:33:58.012Z,99004.41
2024-04-07T10:39:03.657Z,99000.77
2024-04-07T10:44:10.080Z,98999.66
2024-04-07T10:49:13.865Z,98996.46
2024-04-07T10:54:16.669Z,98995.05
2024-04-07T10:59:19.518Z,98991.39
2024-04-07T11:04:22.781Z,98989.27
2024-04-07T11:09:25.821Z,98985.33
2024-04-07T11:14:30.607Z,98977.20
2024-04-07T11:19:33.979Z,98976.55
2024-04-07T11:24:38.289Z,98970.59
2024-04-07T11:29:41.401Z,98966.97
2024-04-07T11:34:45.826Z,98958.15
2024-04-07T11:39:56.992Z,98952.46
2024-04-07T11:45:04.903Z,98950.16
2024-04-07T11:50:10.127Z,98949.83
2024-04-07T11:55:13.103Z,98953.06
2024-04-07T12:00:18.824Z,98952.36
2024-04-07T12:05:21.803Z,98944.06
2024-04-07T12:10:24.647Z,98943.43
2024-04-07T12:15:27.545Z,98937.58
2024-04-07T12:20:30.399Z,98932.92
2024-04-07T12:25:33.495Z,98928.05
2024-04-07T12:30:36.407Z,98924.91
2024-04-07T12:35:39.939Z,98918.16
2024-04-07T12:40:43.294Z,98915.43
2024-04-07T12:45:46.136Z,98917.10
2024-04-07T12:50:49.444Z,98913.87
2024-04-07T12:55:52.349Z,98906.12
2024-04-07T13:00:55.156Z,98903.13
2024-04-07T13:05:59.002Z,98899.36
2024-04-07T13:11:02.089Z,98894.82
2024-04-07T13:16:05.839Z,98882.88
2024-04-07T13:21:09.459Z,98886.73
2024-04-07T13:26:12.314Z,98891.37
2024-04-07T13:31:15.143Z,98885.69
2024-04-07T13:36:18.002Z,98876.69
2024-04-07T13:41:23.007Z,98879.00
2024-04-07T13:46:26.022Z,98874.20
2024-04-07T13:51:29.174Z,98878.11
2024-04-07T13:56:32.373Z,98875.55
2024-04-07T14:01:35.738Z,98873.96
2024-04-07T14:06:38.586Z,98870.59
2024-04-07T14:11:41.581Z,98876.42
2024-04-07T14:16:44.452Z,98873.01
2024-04-07T14:21:47.299Z,98868.10
2024-04-07T14:26:50.321Z,98872.31
2024-04-07T14:31:53.174Z,98871.80
2024-04-07T14:36:56.909Z,98869.05
2024-04-07T14:42:00.406Z,98869.08
2024-04-07T14:47:04.093Z,98867.18
2024-04-07T14:52:07.820Z,98868.12
2024-04-07T14:57:10.868Z,98867.00
2024-04-07T15:02:15.772Z,98868.31
2024-04-07T15:07:20.481Z,98861.48
2024-04-07T15:12:23.515Z,98862.95
2024-04-07T15:17:26.320Z,98860.57
2024-04-07T15:22:29.354Z,98854.19
2024-04-07T15:27:32.197Z,98858.39
2024-04-07T15:32:35.152Z,98862.49
2024-04-07T15:37:40.779Z,98861.94
2024-04-07T15:42:44.026Z,98854.98
2024-04-07T15:47:46.964Z,98852.84
2024-04-07T15:52:52.096Z,98852.16
2024-04-07T15:57:54.964Z,98848.08
2024-04-07T16:02:57.847Z,98838.98
2024-04-07T16:08:00.932Z,98832.24
2024-04-07T16:13:04.744Z,98827.10
2024-04-07T16:18:08.262Z,98828.42
2024-04-07T16:23:11.196Z,98835.98
2024-04-07T16:28:14.089Z,98830.71
2024-04-07T16:33:17.121Z,98831.16
2024-04-07T16:38:20.497Z,98827.91
2024-04-07T16:43:23.509Z,98825.23
2024-04-07T16:48:26.318Z,98824.38
2024-04-07T16:53:29.183Z,98825.20
2024-04-07T16:58:32.317Z,98829.13
2024-04-07T17:03:35.398Z,98826.90
2024-04-07T17:08:39.829Z,98832.08
2024-04-07T17:13:42.956Z,98831.75
2024-04-07T17:18:45.908Z,98838.83
2024-04-07T17:23:48.800Z,98842.27
2024-04-07T17:28:51.682Z,98840.31
2024-04-07T17:33:55.297Z,98845.61
2024-04-07T17:38:58.186Z,98848.83
2024-04-07T17:44:01.443Z,98852.04
2024-04-07T17:49:04.753Z,98857.44
2024-04-07T17:54:07.618Z,98859.67
2024-04-07T17:59:10.482Z,98861.63
2024-04-07T18:04:13.255Z,98867.40
2024-04-07T18:09:20.155Z,98870.36
2024-04-07T18:14:23.206Z,98870.00
2024-04-07T18:19:26.127Z,98875.35
2024-04-07T18:24:30.744Z,98878.11
2024-04-07T18:29:33.968Z,98880.56
2024-04-07T18:34:36.842Z,98878.98
2024-04-07T18:39:40.351Z,98891.06
2024-04-07T18:44:43.956Z,98892.71
2024-04-07T18:49:46.916Z,98888.41
2024-04-07T18:54:50.005Z,98885.09
2024-04-07T18:59:54.603Z,98881.75
2024-04-07T19:05:00.781Z,98883.59
2024-04-07T19:10:03.913Z,98885.13
2024-04-07T19:15:07.688Z,98887.74
2024-04-07T19:20:10.919Z,98880.38
2024-04-07T19:25:14.639Z,98884.70
2024-04-07T19:30:17.717Z,98883.59
2024-04-07T19:35:23.361Z,98884.84
2024-04-07T19:40:26.179Z,98881.95
2024-04-07T19:45:31.037Z,98886.02
2024-04-07T19:50:34.108Z,98890.71
2024-04-07T19:55:37.073Z,98897.41
2024-04-07T20:00:41.550Z,98900.61
2024-04-07T20:05:47.050Z,98899.76
2024-04-07T20:10:52.079Z,98901.65
2024-04-07T20:15:54.951Z,98907.77
2024-04-07T20:21:00.692Z,98913.24
2024-04-07T20:26:03.834Z,98909.83
2024-04-07T20:31:06.718Z,98905.52
2024-04-07T20:36:09.751Z,98903.15
2024-04-07T20:41:12.594Z,98902.55
2024-04-07T20:46:17.201Z,98898.86
2024-04-07T20:51:20.110Z,98899.19
2024-04-07T20:56:23.082Z,98902.21
2024-04-07T21:01:26.151Z,98899.90
2024-04-07T21:06:29.187Z,98893.45
2024-04-07T21:11:32.187Z,98891.83
2024-04-07T21:16:36.528Z,98896.21
2024-04-07T21:21:39.593Z,98887.41
2024-04-07T21:26:42.697Z,98889.15
2024-04-07T21:31:45.732Z,98889.05
2024-04-07T21:36:48.724Z,98882.65
2024-04-07T21:41:51.526Z,98882.55
2024-04-07T21:46:54.614Z,98878.02
2024-04-07T21:51:57.452Z,98874.63
2024-04-07T21:57:00.829Z,98873.81
2024-04-07T22:02:04.138Z,98870.42
2024-04-07T22:07:07.146Z,98864.27
2024-04-07T22:12:10.097Z,98862.92
2024-04-07T22:17:12.911Z,98859.44
2024-04-07T22:22:17.513Z,98859.11
2024-04-07T22:27:20.955Z,98854.16
2024-04-07T22:32:24.008Z,98858.29
2024-04-07T22:37:26.840Z,98859.88
2024-04-07T22:42:29.619Z,98854.97
2024-04-07T22:47:33.177Z,98855.19
2024-04-07T22:52:36.029Z,98861.16
2024-04-07T22:57:39.008Z,98862.34
2024-04-07T23:02:42.169Z,98860.68
2024-04-07T23:07:46.427Z,98854.45
2024-04-07T23:12:50.966Z,98850.16
2024-04-07T23:17:54.013Z,98848.77
2024-04-07T23:22:57.411Z,98841.16
2024-04-07T23:28:00.390Z,98840.59
2024-04-07T23:33:03.531Z,98844.98
2024-04-07T23:38:08.573Z,98846.39
2024-04-07T23:43:11.462Z,98848.11
2024-04-07T23:48:15.431Z,98843.06
2024-04-07T23:53:18.476Z,98837.66
2024-04-07T23:58:21.553Z,98833.29
